sensor_id;sensor_type;location;lat;lon;timestamp;pressure;altitude;pressure_sealevel;temperature;humidity
74435;BME280;62867;52.038;29.256;2023-04-08T00:01:48;1027.9;;;10.5;70.9
74435;BME280;62867;52.038;29.256;2023-04-08T00:05:58;1027.8;;;10.5;71.3
74435;BME280;62867;52.038;29.256;2023-04-08T00:11:20;1027.9;;;10.5;71.3
74435;BME280;62867;52.038;29.256;2023-04-08T00:16:48;1028;;;10.5;71.3
74435;BME280;62867;52.038;29.256;2023-04-08T00:21:32;1028;;;10.6;71.3
74435;BME280;62867;52.038;29.256;2023-04-08T00:26:50;1028;;;10.6;71.2
74435;BME280;62867;52.038;29.256;2023-04-08T00:31:20;1028;;;10.6;71.1
74435;BME280;62867;52.038;29.256;2023-04-08T00:36:08;1028;;;10.7;71.3
74435;BME280;62867;52.038;29.256;2023-04-08T00:41:50;1028;;;10.7;71.1
74435;BME280;62867;52.038;29.256;2023-04-08T00:46:35;1028;;;10.7;71.1
74435;BME280;62867;52.038;29.256;2023-04-08T00:51:50;1028;;;10.7;71.3
74435;BME280;62867;52.038;29.256;2023-04-08T00:56:08;1028;;;10.7;71.4
74435;BME280;62867;52.038;29.256;2023-04-08T01:01:21;1028;;;10.7;71.4
74435;BME280;62867;52.038;29.256;2023-04-08T01:06:53;1028;;;10.7;71.5
74435;BME280;62867;52.038;29.256;2023-04-08T01:11:20;1028;;;10.7;71.7
74435;BME280;62867;52.038;29.256;2023-04-08T01:16:50;1028;;;10.8;71.6
74435;BME280;62867;52.038;29.256;2023-04-08T01:20:58;1028.1;;;10.9;71.7
74435;BME280;62867;52.038;29.256;2023-04-08T01:26:21;1028.1;;;10.9;71.4
74435;BME280;62867;52.038;29.256;2023-04-08T01:31:51;1028.1;;;11;71.5
74435;BME280;62867;52.038;29.256;2023-04-08T01:36:32;1028.2;;;11;71.8
74435;BME280;62867;52.038;29.256;2023-04-08T01:41:50;1028.2;;;11;71.7
74435;BME280;62867;52.038;29.256;2023-04-08T01:45:58;1028.1;;;11.1;72
74435;BME280;62867;52.038;29.256;2023-04-08T01:50:59;1028.1;;;11.1;71.9
74435;BME280;62867;52.038;29.256;2023-04-08T01:56:19;1028.1;;;11.1;72
74435;BME280;62867;52.038;29.256;2023-04-08T02:01:34;1028.1;;;11.1;72
74435;BME280;62867;52.038;29.256;2023-04-08T02:06:48;1028.2;;;11.1;71.9
74435;BME280;62867;52.038;29.256;2023-04-08T02:10:58;1028.1;;;11.1;72.2
74435;BME280;62867;52.038;29.256;2023-04-08T02:16:24;1028;;;11.1;72.2
74435;BME280;62867;52.038;29.256;2023-04-08T02:21:01;1028;;;11.1;72
74435;BME280;62867;52.038;29.256;2023-04-08T02:26:35;1028.1;;;11.1;72
74435;BME280;62867;52.038;29.256;2023-04-08T02:31:34;1028.1;;;11.1;72
74435;BME280;62867;52.038;29.256;2023-04-08T02:35:58;1028.1;;;11.2;72.1
74435;BME280;62867;52.038;29.256;2023-04-08T02:41:22;1028.1;;;11.2;72.2
74435;BME280;62867;52.038;29.256;2023-04-08T02:46:34;1028.1;;;11.2;72.4
74435;BME280;62867;52.038;29.256;2023-04-08T02:51:38;1028.1;;;11.2;72.4
74435;BME280;62867;52.038;29.256;2023-04-08T02:56:50;1028.1;;;11.2;72.2
74435;BME280;62867;52.038;29.256;2023-04-08T03:00:58;1028.1;;;11.2;72
74435;BME280;62867;52.038;29.256;2023-04-08T03:06:12;1028.1;;;11.1;72.2
74435;BME280;62867;52.038;29.256;2023-04-08T03:10:58;1028.1;;;11.1;72.3
74435;BME280;62867;52.038;29.256;2023-04-08T03:16:32;1028.1;;;11.2;72.2
74435;BME280;62867;52.038;29.256;2023-04-08T03:21:48;1028.1;;;11.2;72.2
74435;BME280;62867;52.038;29.256;2023-04-08T03:26:20;1028.2;;;11.2;72.2
74435;BME280;62867;52.038;29.256;2023-04-08T03:30:58;1028.2;;;11.1;72.2
74435;BME280;62867;52.038;29.256;2023-04-08T03:36:22;1028.2;;;11.1;72.3
74435;BME280;62867;52.038;29.256;2023-04-08T03:41:32;1028.2;;;11.1;72.1
74435;BME280;62867;52.038;29.256;2023-04-08T03:46:51;1028.2;;;11.1;72.2
74435;BME280;62867;52.038;29.256;2023-04-08T03:51:13;1028.3;;;11.1;72.4
74435;BME280;62867;52.038;29.256;2023-04-08T03:56:22;1028.3;;;11.1;72.7
74435;BME280;62867;52.038;29.256;2023-04-08T04:01:35;1028.3;;;11.2;72.9
74435;BME280;62867;52.038;29.256;2023-04-08T04:06:34;1028.3;;;11.3;72.7
74435;BME280;62867;52.038;29.256;2023-04-08T04:11:49;1028.3;;;11.3;72.7
74435;BME280;62867;52.038;29.256;2023-04-08T04:15:58;1028.3;;;11.4;72.7
74435;BME280;62867;52.038;29.256;2023-04-08T04:21:22;1028.3;;;11.5;72.5
74435;BME280;62867;52.038;29.256;2023-04-08T04:26:23;1028.4;;;11.6;72.4
74435;BME280;62867;52.038;29.256;2023-04-08T04:31:34;1028.4;;;11.7;72.1
74435;BME280;62867;52.038;29.256;2023-04-08T04:36:50;1028.4;;;11.7;72
74435;BME280;62867;52.038;29.256;2023-04-08T04:40:58;1028.4;;;11.8;72.4
74435;BME280;62867;52.038;29.256;2023-04-08T04:46:49;1028.5;;;11.8;72.3
74435;BME280;62867;52.038;29.256;2023-04-08T04:51:23;1028.5;;;11.7;72.7
74435;BME280;62867;52.038;29.256;2023-04-08T04:56:35;1028.6;;;11.8;72.8
74435;BME280;62867;52.038;29.256;2023-04-08T05:01:50;1028.6;;;11.8;72.9
74435;BME280;62867;52.038;29.256;2023-04-08T05:06:23;1028.7;;;11.9;72.9
74435;BME280;62867;52.038;29.256;2023-04-08T05:10:58;1028.7;;;12;73
74435;BME280;62867;52.038;29.256;2023-04-08T05:15:59;1028.8;;;12.2;72.7
74435;BME280;62867;52.038;29.256;2023-04-08T05:21:33;1028.7;;;12.3;72.4
74435;BME280;62867;52.038;29.256;2023-04-08T05:26:49;1028.8;;;12.4;72.1
74435;BME280;62867;52.038;29.256;2023-04-08T05:31:19;1028.7;;;12.6;71.8
74435;BME280;62867;52.038;29.256;2023-04-08T05:36:47;1028.8;;;12.7;71.5
74435;BME280;62867;52.038;29.256;2023-04-08T05:40:59;1028.8;;;12.8;70.8
74435;BME280;62867;52.038;29.256;2023-04-08T05:45:59;1028.8;;;12.9;70.6
74435;BME280;62867;52.038;29.256;2023-04-08T05:51:39;1028.8;;;13;70.2
74435;BME280;62867;52.038;29.256;2023-04-08T05:56:19;1028.9;;;13.1;69.9
74435;BME280;62867;52.038;29.256;2023-04-08T06:01:49;1028.9;;;13.2;69.4
74435;BME280;62867;52.038;29.256;2023-04-08T06:06:09;1028.9;;;13.3;69.1
74435;BME280;62867;52.038;29.256;2023-04-08T06:11:09;1028.9;;;13.5;68.5
74435;BME280;62867;52.038;29.256;2023-04-08T06:16:39;1028.9;;;13.6;68.4
74435;BME280;62867;52.038;29.256;2023-04-08T06:21:17;1028.8;;;13.8;67.6
74435;BME280;62867;52.038;29.256;2023-04-08T06:26:51;1028.8;;;13.8;67.1
74435;BME280;62867;52.038;29.256;2023-04-08T06:31:11;1028.8;;;14;66.8
74435;BME280;62867;52.038;29.256;2023-04-08T06:36:09;1028.9;;;14.2;66
74435;BME280;62867;52.038;29.256;2023-04-08T06:41:37;1028.9;;;14.4;65.5
74435;BME280;62867;52.038;29.256;2023-04-08T06:46:09;1028.9;;;14.6;64.6
74435;BME280;62867;52.038;29.256;2023-04-08T06:51:49;1029;;;14.8;64.3
74435;BME280;62867;52.038;29.256;2023-04-08T06:56:09;1029;;;15.1;63.6
74435;BME280;62867;52.038;29.256;2023-04-08T07:01:09;1029.1;;;15.3;62.8
74435;BME280;62867;52.038;29.256;2023-04-08T07:06:37;1029.1;;;15.4;62.5
74435;BME280;62867;52.038;29.256;2023-04-08T07:11:19;1029.2;;;15.6;62.1
74435;BME280;62867;52.038;29.256;2023-04-08T07:16:37;1029.2;;;15.6;61.8
74435;BME280;62867;52.038;29.256;2023-04-08T07:20:59;1029.2;;;15.8;61.7
74435;BME280;62867;52.038;29.256;2023-04-08T07:26:19;1029.2;;;16.1;61
74435;BME280;62867;52.038;29.256;2023-04-08T07:31:39;1029.2;;;16.1;60.9
74435;BME280;62867;52.038;29.256;2023-04-08T07:36:19;1029.2;;;16.2;60.2
74435;BME280;62867;52.038;29.256;2023-04-08T07:41:37;1029.2;;;16.4;59.1
74435;BME280;62867;52.038;29.256;2023-04-08T07:46:09;1029.2;;;16.6;58.5
74435;BME280;62867;52.038;29.256;2023-04-08T07:51:19;1029.2;;;16.8;58.3
74435;BME280;62867;52.038;29.256;2023-04-08T07:56:37;1029.2;;;17;57.1
74435;BME280;62867;52.038;29.256;2023-04-08T08:01:21;1029.2;;;17.2;56.5
74435;BME280;62867;52.038;29.256;2023-04-08T08:06:51;1029.2;;;17.4;55.3
74435;BME280;62867;52.038;29.256;2023-04-08T08:10:59;1029.2;;;17.5;55.3
74435;BME280;62867;52.038;29.256;2023-04-08T08:16:19;1029.2;;;17.9;55.5
74435;BME280;62867;52.038;29.256;2023-04-08T08:21:39;1029.2;;;18.2;54.4
74435;BME280;62867;52.038;29.256;2023-04-08T08:26:19;1029.1;;;18.4;53.5
74435;BME280;62867;52.038;29.256;2023-04-08T08:31:51;1029.1;;;18.4;53.4
74435;BME280;62867;52.038;29.256;2023-04-08T08:36:21;1029.1;;;18.5;52.4
74435;BME280;62867;52.038;29.256;2023-04-08T08:41:19;1029.1;;;18.8;51.5
74435;BME280;62867;52.038;29.256;2023-04-08T08:46:33;1029.1;;;18.9;51.7
74435;BME280;62867;52.038;29.256;2023-04-08T08:51:07;1029.1;;;19;50.3
74435;BME280;62867;52.038;29.256;2023-04-08T08:56:47;1029.2;;;19.1;49.3
74435;BME280;62867;52.038;29.256;2023-04-08T09:01:28;1029.2;;;19;48.9
74435;BME280;62867;52.038;29.256;2023-04-08T09:06:21;1029.2;;;19.3;49
74435;BME280;62867;52.038;29.256;2023-04-08T09:11:37;1029.2;;;19.4;48.5
74435;BME280;62867;52.038;29.256;2023-04-08T09:15:59;1029.2;;;19.6;48.4
74435;BME280;62867;52.038;29.256;2023-04-08T09:22:03;1029.2;;;19.8;48
74435;BME280;62867;52.038;29.256;2023-04-08T09:26:21;1029.2;;;20.3;47.7
74435;BME280;62867;52.038;29.256;2023-04-08T09:31:21;1029.1;;;20.7;46.3
74435;BME280;62867;52.038;29.256;2023-04-08T09:36:53;1029.1;;;20.9;44.5
74435;BME280;62867;52.038;29.256;2023-04-08T09:41:35;1029.1;;;21.1;44
74435;BME280;62867;52.038;29.256;2023-04-08T09:46:38;1029.1;;;21.1;42.8
74435;BME280;62867;52.038;29.256;2023-04-08T09:51:11;1029.2;;;20.8;43.7
74435;BME280;62867;52.038;29.256;2023-04-08T09:56:30;1029.1;;;20.5;43.6
74435;BME280;62867;52.038;29.256;2023-04-08T10:01:53;1029.2;;;20.3;44.2
74435;BME280;62867;52.038;29.256;2023-04-08T10:06:21;1029.2;;;20.2;44.4
74435;BME280;62867;52.038;29.256;2023-04-08T10:11:39;1029.1;;;20.6;43.5
74435;BME280;62867;52.038;29.256;2023-04-08T10:16:16;1029.1;;;20.9;43.8
74435;BME280;62867;52.038;29.256;2023-04-08T10:21:37;1029.1;;;20.9;42.9
74435;BME280;62867;52.038;29.256;2023-04-08T10:26:51;1029;;;21;42.6
74435;BME280;62867;52.038;29.256;2023-04-08T10:31:20;1029;;;21.2;41.7
74435;BME280;62867;52.038;29.256;2023-04-08T10:36:37;1029;;;21.6;41.2
74435;BME280;62867;52.038;29.256;2023-04-08T10:41:11;1029;;;22;40.4
74435;BME280;62867;52.038;29.256;2023-04-08T10:46:39;1029;;;21.9;39.9
74435;BME280;62867;52.038;29.256;2023-04-08T10:51:53;1028.9;;;21.8;40.5
74435;BME280;62867;52.038;29.256;2023-04-08T10:56:53;1028.9;;;21.7;39.6
74435;BME280;62867;52.038;29.256;2023-04-08T11:01:39;1028.9;;;21.8;39.6
74435;BME280;62867;52.038;29.256;2023-04-08T11:06:29;1028.9;;;21.9;40.1
74435;BME280;62867;52.038;29.256;2023-04-08T11:11:40;1028.9;;;22.3;40.3
74435;BME280;62867;52.038;29.256;2023-04-08T11:16:53;1028.8;;;22.4;40
74435;BME280;62867;52.038;29.256;2023-04-08T11:21:35;1028.8;;;22.1;40.3
74435;BME280;62867;52.038;29.256;2023-04-08T11:26:39;1028.7;;;22;40.1
74435;BME280;62867;52.038;29.256;2023-04-08T11:31:21;1028.7;;;22.1;39.2
74435;BME280;62867;52.038;29.256;2023-04-08T11:36:39;1028.8;;;21.9;41.5
74435;BME280;62867;52.038;29.256;2023-04-08T11:41:53;1028.7;;;22.4;40.4
74435;BME280;62867;52.038;29.256;2023-04-08T11:46:21;1028.7;;;22.3;40.3
74435;BME280;62867;52.038;29.256;2023-04-08T11:51:52;1028.7;;;22.4;38.9
74435;BME280;62867;52.038;29.256;2023-04-08T11:56:16;1028.7;;;23;38.8
74435;BME280;62867;52.038;29.256;2023-04-08T12:01:39;1028.7;;;24;36.7
74435;BME280;62867;52.038;29.256;2023-04-08T12:06:53;1028.8;;;24.2;36
74435;BME280;62867;52.038;29.256;2023-04-08T12:11:21;1028.8;;;23.8;36
74435;BME280;62867;52.038;29.256;2023-04-08T12:16:39;1028.8;;;22.8;36.8
74435;BME280;62867;52.038;29.256;2023-04-08T12:20:59;1028.8;;;21.8;37.5
74435;BME280;62867;52.038;29.256;2023-04-08T12:26:39;1028.7;;;21;39
74435;BME280;62867;52.038;29.256;2023-04-08T12:31:53;1028.8;;;20.4;39.6
74435;BME280;62867;52.038;29.256;2023-04-08T12:36:35;1028.8;;;20;41.3
74435;BME280;62867;52.038;29.256;2023-04-08T12:41:39;1028.9;;;19.9;41.4
74435;BME280;62867;52.038;29.256;2023-04-08T12:45:59;1028.9;;;19.8;41
74435;BME280;62867;52.038;29.256;2023-04-08T12:51:39;1028.9;;;20.4;41.2
74435;BME280;62867;52.038;29.256;2023-04-08T12:56:51;1028.8;;;21.7;39.4
74435;BME280;62867;52.038;29.256;2023-04-08T13:01:09;1028.8;;;22.8;37.9
74435;BME280;62867;52.038;29.256;2023-04-08T13:06:37;1028.8;;;22.6;37.9
74435;BME280;62867;52.038;29.256;2023-04-08T13:11:09;1028.7;;;22.4;37.9
74435;BME280;62867;52.038;29.256;2023-04-08T13:16:23;1028.7;;;22.6;38.1
74435;BME280;62867;52.038;29.256;2023-04-08T13:21:51;1028.6;;;22.7;37.4
74435;BME280;62867;52.038;29.256;2023-04-08T13:26:21;1028.6;;;23.1;36.4
74435;BME280;62867;52.038;29.256;2023-04-08T13:31:37;1028.5;;;23.4;36.8
74435;BME280;62867;52.038;29.256;2023-04-08T13:36:09;1028.4;;;23.3;36.8
74435;BME280;62867;52.038;29.256;2023-04-08T13:41:53;1028.4;;;22.9;37.5
74435;BME280;62867;52.038;29.256;2023-04-08T13:46:51;1028.4;;;22.5;37.9
74435;BME280;62867;52.038;29.256;2023-04-08T13:51:21;1028.4;;;22.1;38.2
74435;BME280;62867;52.038;29.256;2023-04-08T13:56:51;1028.3;;;21.8;38.2
74435;BME280;62867;52.038;29.256;2023-04-08T14:00:59;1028.2;;;21.7;38.3
74435;BME280;62867;52.038;29.256;2023-04-08T14:06:37;1028.2;;;21.4;38.2
74435;BME280;62867;52.038;29.256;2023-04-08T14:11:51;1028.2;;;21.3;38.9
74435;BME280;62867;52.038;29.256;2023-04-08T14:16:35;1028.2;;;21.1;38.3
74435;BME280;62867;52.038;29.256;2023-04-08T14:21:53;1028.2;;;20.7;38.7
74435;BME280;62867;52.038;29.256;2023-04-08T14:26:11;1028.2;;;20.4;39.8
74435;BME280;62867;52.038;29.256;2023-04-08T14:31:39;1028.3;;;20.1;42
74435;BME280;62867;52.038;29.256;2023-04-08T14:36:53;1028.3;;;19.8;42.1
74435;BME280;62867;52.038;29.256;2023-04-08T14:41:21;1028.3;;;19.6;43.9
74435;BME280;62867;52.038;29.256;2023-04-08T14:46:53;1028.3;;;19.4;45.6
74435;BME280;62867;52.038;29.256;2023-04-08T14:50:59;1028.2;;;19.1;46.1
74435;BME280;62867;52.038;29.256;2023-04-08T14:56:39;1028.2;;;18.9;45.9
74435;BME280;62867;52.038;29.256;2023-04-08T15:01:53;1028.1;;;18.6;45.8
74435;BME280;62867;52.038;29.256;2023-04-08T15:06:47;1028.1;;;18.4;46.1
74435;BME280;62867;52.038;29.256;2023-04-08T15:11:53;1028.1;;;18.3;46.4
74435;BME280;62867;52.038;29.256;2023-04-08T15:15:59;1028.1;;;18.1;46.9
74435;BME280;62867;52.038;29.256;2023-04-08T15:21:39;1028.1;;;18;47.2
74435;BME280;62867;52.038;29.256;2023-04-08T15:26:53;1028.2;;;17.8;47.3
74435;BME280;62867;52.038;29.256;2023-04-08T15:31:21;1028.2;;;17.6;47.3
74435;BME280;62867;52.038;29.256;2023-04-08T15:36:53;1028.2;;;17.4;47.7
74435;BME280;62867;52.038;29.256;2023-04-08T15:40:59;1028.2;;;17.3;47.3
74435;BME280;62867;52.038;29.256;2023-04-08T15:46:37;1028.3;;;17.1;47.6
74435;BME280;62867;52.038;29.256;2023-04-08T15:51:39;1028.3;;;17;47.7
74435;BME280;62867;52.038;29.256;2023-04-08T15:56:21;1028.3;;;16.9;48
74435;BME280;62867;52.038;29.256;2023-04-08T16:01:53;1028.3;;;16.8;48.7
74435;BME280;62867;52.038;29.256;2023-04-08T16:06:11;1028.3;;;16.7;48.8
74435;BME280;62867;52.038;29.256;2023-04-08T16:11:37;1028.4;;;16.6;49.2
74435;BME280;62867;52.038;29.256;2023-04-08T16:16:53;1028.4;;;16.4;49.9
74435;BME280;62867;52.038;29.256;2023-04-08T16:20:59;1028.4;;;16.2;50.6
74435;BME280;62867;52.038;29.256;2023-04-08T16:26:51;1028.5;;;16;51.4
74435;BME280;62867;52.038;29.256;2023-04-08T16:31:09;1028.5;;;15.8;51.5
74435;BME280;62867;52.038;29.256;2023-04-08T16:36:39;1028.5;;;15.6;51.7
74435;BME280;62867;52.038;29.256;2023-04-08T16:41:53;1028.6;;;15.4;52.9
74435;BME280;62867;52.038;29.256;2023-04-08T16:46:21;1028.8;;;15.2;53.7
74435;BME280;62867;52.038;29.256;2023-04-08T16:51:53;1028.8;;;15;54.4
74435;BME280;62867;52.038;29.256;2023-04-08T16:56:17;1028.8;;;14.8;55.4
74435;BME280;62867;52.038;29.256;2023-04-08T17:01:39;1028.9;;;14.5;56
74435;BME280;62867;52.038;29.256;2023-04-08T17:06:51;1029;;;14.3;56.3
74435;BME280;62867;52.038;29.256;2023-04-08T17:11:03;1029.1;;;14.1;57.5
74435;BME280;62867;52.038;29.256;2023-04-08T17:16:53;1029.1;;;13.8;58.7
74435;BME280;62867;52.038;29.256;2023-04-08T17:21:09;1029.3;;;13.7;59.4
74435;BME280;62867;52.038;29.256;2023-04-08T17:26:39;1029.3;;;13.5;60.2
74435;BME280;62867;52.038;29.256;2023-04-08T17:31:53;1029.4;;;13.5;60.8
74435;BME280;62867;52.038;29.256;2023-04-08T17:36:21;1029.4;;;13.4;61
74435;BME280;62867;52.038;29.256;2023-04-08T17:41:53;1029.5;;;13.4;61.5
74435;BME280;62867;52.038;29.256;2023-04-08T17:46:39;1029.5;;;13.5;61.4
74435;BME280;62867;52.038;29.256;2023-04-08T17:51:39;1029.5;;;13.5;61.5
74435;BME280;62867;52.038;29.256;2023-04-08T17:56:09;1029.5;;;13.5;61.3
74435;BME280;62867;52.038;29.256;2023-04-08T18:01:21;1029.5;;;13.5;61.3
74435;BME280;62867;52.038;29.256;2023-04-08T18:06:51;1029.5;;;13.5;61.6
74435;BME280;62867;52.038;29.256;2023-04-08T18:11:02;1029.5;;;13.4;62.1
74435;BME280;62867;52.038;29.256;2023-04-08T18:16:39;1029.6;;;13.3;62.3
74435;BME280;62867;52.038;29.256;2023-04-08T18:21:09;1029.6;;;13.3;62.6
74435;BME280;62867;52.038;29.256;2023-04-08T18:26:21;1029.6;;;13.2;62.9
74435;BME280;62867;52.038;29.256;2023-04-08T18:31:53;1029.7;;;13.2;63.2
74435;BME280;62867;52.038;29.256;2023-04-08T18:36:04;1029.7;;;13.1;62.7
74435;BME280;62867;52.038;29.256;2023-04-08T18:41:39;1029.7;;;13.1;63.1
74435;BME280;62867;52.038;29.256;2023-04-08T18:46:51;1029.7;;;13;63.1
74435;BME280;62867;52.038;29.256;2023-04-08T18:51:09;1029.7;;;13;63.2
74435;BME280;62867;52.038;29.256;2023-04-08T18:56:51;1029.7;;;12.9;63.1
74435;BME280;62867;52.038;29.256;2023-04-08T19:00:59;1029.7;;;12.8;63
74435;BME280;62867;52.038;29.256;2023-04-08T19:06:39;1029.7;;;12.6;63.2
74435;BME280;62867;52.038;29.256;2023-04-08T19:11:09;1029.8;;;12.4;63.4
74435;BME280;62867;52.038;29.256;2023-04-08T19:16:21;1030.1;;;12.4;61.8
74435;BME280;62867;52.038;29.256;2023-04-08T19:21:51;1029.9;;;12.6;58.8
74435;BME280;62867;52.038;29.256;2023-04-08T19:26:02;1029.9;;;12.8;59.6
74435;BME280;62867;52.038;29.256;2023-04-08T19:31:37;1029.8;;;12.9;59.3
74435;BME280;62867;52.038;29.256;2023-04-08T19:35:59;1029.7;;;13;58
74435;BME280;62867;52.038;29.256;2023-04-08T19:41:19;1029.8;;;12.9;59.6
74435;BME280;62867;52.038;29.256;2023-04-08T19:46:53;1030;;;12.8;59.4
74435;BME280;62867;52.038;29.256;2023-04-08T19:50:59;1029.9;;;12.8;59.3
74435;BME280;62867;52.038;29.256;2023-04-08T19:56:37;1030;;;12.7;61.2
74435;BME280;62867;52.038;29.256;2023-04-08T20:01:51;1030;;;12.5;62.4
74435;BME280;62867;52.038;29.256;2023-04-08T20:06:21;1030.1;;;12.5;62.8
74435;BME280;62867;52.038;29.256;2023-04-08T20:11:53;1030;;;12.3;63
74435;BME280;62867;52.038;29.256;2023-04-08T20:15:59;1030;;;12.2;63.2
74435;BME280;62867;52.038;29.256;2023-04-08T20:21:37;1029.9;;;12.1;63.5
74435;BME280;62867;52.038;29.256;2023-04-08T20:26:21;1030;;;12.1;63.8
74435;BME280;62867;52.038;29.256;2023-04-08T20:30:59;1030;;;12;63.8
74435;BME280;62867;52.038;29.256;2023-04-08T20:36:53;1030;;;11.9;64.2
74435;BME280;62867;52.038;29.256;2023-04-08T20:40:59;1030;;;11.8;64.7
74435;BME280;62867;52.038;29.256;2023-04-08T20:46:27;1029.9;;;11.7;65
74435;BME280;62867;52.038;29.256;2023-04-08T20:50:59;1030;;;11.5;65.4
74435;BME280;62867;52.038;29.256;2023-04-08T20:56:35;1030;;;11.4;65.7
74435;BME280;62867;52.038;29.256;2023-04-08T21:01:53;1029.9;;;11.3;66.1
74435;BME280;62867;52.038;29.256;2023-04-08T21:06:14;1030;;;11.2;66.2
74435;BME280;62867;52.038;29.256;2023-04-08T21:11:49;1030;;;11.2;66.5
74435;BME280;62867;52.038;29.256;2023-04-08T21:15:59;1030;;;11.1;66.6
74435;BME280;62867;52.038;29.256;2023-04-08T21:21:21;1030;;;11;66.6
74435;BME280;62867;52.038;29.256;2023-04-08T21:26:53;1029.9;;;10.9;66.9
74435;BME280;62867;52.038;29.256;2023-04-08T21:31:05;1029.9;;;10.9;66.9
74435;BME280;62867;52.038;29.256;2023-04-08T21:36:39;1029.9;;;10.9;67.2
74435;BME280;62867;52.038;29.256;2023-04-08T21:41:11;1029.9;;;10.8;67.7
74435;BME280;62867;52.038;29.256;2023-04-08T21:45:59;1029.8;;;10.7;67.3
74435;BME280;62867;52.038;29.256;2023-04-08T21:51:49;1029.8;;;10.6;67.7
74435;BME280;62867;52.038;29.256;2023-04-08T21:56:09;1029.8;;;10.5;68
74435;BME280;62867;52.038;29.256;2023-04-08T22:01:39;1029.8;;;10.5;68.4
74435;BME280;62867;52.038;29.256;2023-04-08T22:06:09;1029.7;;;10.5;68.7
74435;BME280;62867;52.038;29.256;2023-04-08T22:11:53;1029.7;;;10.4;68.7
74435;BME280;62867;52.038;29.256;2023-04-08T22:16:35;1029.7;;;10.3;68.6
74435;BME280;62867;52.038;29.256;2023-04-08T22:21:39;1029.7;;;10.3;68.5
74435;BME280;62867;52.038;29.256;2023-04-08T22:26:39;1029.8;;;10.2;68.4
74435;BME280;62867;52.038;29.256;2023-04-08T22:31:09;1029.7;;;10.2;68.5
74435;BME280;62867;52.038;29.256;2023-04-08T22:36:51;1029.7;;;10.1;68.5
74435;BME280;62867;52.038;29.256;2023-04-08T22:41:22;1029.8;;;10;68.3
74435;BME280;62867;52.038;29.256;2023-04-08T22:46:51;1029.8;;;9.9;68.6
74435;BME280;62867;52.038;29.256;2023-04-08T22:51:27;1029.8;;;9.8;68.7
74435;BME280;62867;52.038;29.256;2023-04-08T22:55:59;1029.8;;;9.7;68.6
74435;BME280;62867;52.038;29.256;2023-04-08T23:01:53;1029.7;;;9.6;69.3
74435;BME280;62867;52.038;29.256;2023-04-08T23:06:21;1029.7;;;9.6;69.2
74435;BME280;62867;52.038;29.256;2023-04-08T23:11:53;1029.7;;;9.5;69.4
74435;BME280;62867;52.038;29.256;2023-04-08T23:16:37;1029.7;;;9.5;69.5
74435;BME280;62867;52.038;29.256;2023-04-08T23:21:09;1029.6;;;9.4;69.4
74435;BME280;62867;52.038;29.256;2023-04-08T23:26:51;1029.7;;;9.4;69.6
74435;BME280;62867;52.038;29.256;2023-04-08T23:31:21;1029.7;;;9.3;69.8
74435;BME280;62867;52.038;29.256;2023-04-08T23:36:53;1029.6;;;9.3;70
74435;BME280;62867;52.038;29.256;2023-04-08T23:41:01;1029.6;;;9.3;70.1
74435;BME280;62867;52.038;29.256;2023-04-08T23:46:09;1029.6;;;9.2;70.2
74435;BME280;62867;52.038;29.256;2023-04-08T23:51:51;1029.6;;;9.2;70
74435;BME280;62867;52.038;29.256;2023-04-08T23:56:21;1029.6;;;9.1;70.3
